Kilsyth, United Kingdom
Current Conditions -  °F | °C
As of 4:50 PM on Saturday 22 Nov 2014 (Local Time) from EGPF Reporting Station
Overcast Overcast  
Wind Chill:   Ceiling: 3200
Heat Index:   Visibility: 6mi
Dew Point:   Wind: 7mph
Humidity: 100%   Direction: 210°SSW
Pressure: 29.83"   Gusts: NA
Location:  55.98°N, 4.06°W
Report Text: EGPF 221650Z AUTO 21006KT 9999 FEW015 BKN032 OVC046 09/09 Q1010 RERA
Loading
Personal Weather Stations






























Interactive Weather Map New forecast layout! Learn more

10-Day Weather Forecast

Advertisements
Track Severe Weather on mobile